sensor_id;sensor_type;location;lat;lon;timestamp;pressure;altitude;pressure_sealevel;temperature;humidity
17781;BME280;8498;52.516;13.790;2024-01-10T00:01:56;103063.53;;;-7.32;83.90
17781;BME280;8498;52.516;13.790;2024-01-10T00:07:19;103057.16;;;-7.40;84.84
17781;BME280;8498;52.516;13.790;2024-01-10T00:12:41;103058.56;;;-7.27;84.08
17781;BME280;8498;52.516;13.790;2024-01-10T00:18:06;103060.34;;;-7.65;84.63
17781;BME280;8498;52.516;13.790;2024-01-10T00:23:29;103050.19;;;-7.62;85.33
17781;BME280;8498;52.516;13.790;2024-01-10T00:28:51;103046.63;;;-7.45;84.15
17781;BME280;8498;52.516;13.790;2024-01-10T00:34:14;103036.47;;;-7.61;83.92
17781;BME280;8498;52.516;13.790;2024-01-10T00:39:36;103036.31;;;-7.64;83.74
17781;BME280;8498;52.516;13.790;2024-01-10T00:44:59;103044.63;;;-7.71;83.89
17781;BME280;8498;52.516;13.790;2024-01-10T00:50:22;103037.53;;;-7.75;85.57
17781;BME280;8498;52.516;13.790;2024-01-10T00:55:44;103029.94;;;-7.53;84.20
17781;BME280;8498;52.516;13.790;2024-01-10T01:01:07;103028.16;;;-7.54;83.52
17781;BME280;8498;52.516;13.790;2024-01-10T01:06:29;103025.72;;;-7.51;83.05
17781;BME280;8498;52.516;13.790;2024-01-10T01:11:51;103023.00;;;-7.54;82.45
17781;BME280;8498;52.516;13.790;2024-01-10T01:17:14;103027.56;;;-7.48;82.93
17781;BME280;8498;52.516;13.790;2024-01-10T01:22:36;103023.66;;;-7.58;82.25
17781;BME280;8498;52.516;13.790;2024-01-10T01:27:59;103031.56;;;-7.74;82.90
17781;BME280;8498;52.516;13.790;2024-01-10T01:33:22;103030.75;;;-7.73;84.62
17781;BME280;8498;52.516;13.790;2024-01-10T01:38:44;103019.34;;;-7.59;83.57
17781;BME280;8498;52.516;13.790;2024-01-10T01:44:07;103031.97;;;-7.84;83.77
17781;BME280;8498;52.516;13.790;2024-01-10T01:49:29;103018.88;;;-7.89;84.12
17781;BME280;8498;52.516;13.790;2024-01-10T01:54:53;103012.72;;;-7.92;84.79
17781;BME280;8498;52.516;13.790;2024-01-10T02:00:16;103034.00;;;-7.77;84.89
17781;BME280;8498;52.516;13.790;2024-01-10T02:05:38;103021.25;;;-7.74;85.32
17781;BME280;8498;52.516;13.790;2024-01-10T02:11:02;103015.53;;;-7.67;85.21
17781;BME280;8498;52.516;13.790;2024-01-10T02:16:26;103017.44;;;-7.63;84.68
17781;BME280;8498;52.516;13.790;2024-01-10T02:21:48;103006.97;;;-7.66;83.36
17781;BME280;8498;52.516;13.790;2024-01-10T02:27:11;103011.72;;;-7.56;83.40
17781;BME280;8498;52.516;13.790;2024-01-10T02:32:34;103014.41;;;-7.73;83.14
17781;BME280;8498;52.516;13.790;2024-01-10T02:37:57;103011.09;;;-7.90;84.44
17781;BME280;8498;52.516;13.790;2024-01-10T02:43:19;103015.22;;;-7.94;85.03
17781;BME280;8498;52.516;13.790;2024-01-10T02:48:41;103012.56;;;-7.95;84.63
17781;BME280;8498;52.516;13.790;2024-01-10T02:54:04;103007.13;;;-7.82;84.53
17781;BME280;8498;52.516;13.790;2024-01-10T02:59:26;102998.03;;;-7.74;83.95
17781;BME280;8498;52.516;13.790;2024-01-10T03:04:48;102993.50;;;-7.80;82.86
17781;BME280;8498;52.516;13.790;2024-01-10T03:10:11;102995.88;;;-7.84;83.74
17781;BME280;8498;52.516;13.790;2024-01-10T03:15:33;102994.88;;;-7.67;83.19
17781;BME280;8498;52.516;13.790;2024-01-10T03:20:56;102993.81;;;-7.72;83.02
17781;BME280;8498;52.516;13.790;2024-01-10T03:26:18;102989.88;;;-7.64;82.64
17781;BME280;8498;52.516;13.790;2024-01-10T03:31:41;102992.25;;;-7.68;81.95
17781;BME280;8498;52.516;13.790;2024-01-10T03:37:03;102983.19;;;-7.80;82.98
17781;BME280;8498;52.516;13.790;2024-01-10T03:42:26;102978.75;;;-7.82;81.97
17781;BME280;8498;52.516;13.790;2024-01-10T03:47:49;102979.34;;;-7.88;82.54
17781;BME280;8498;52.516;13.790;2024-01-10T03:53:14;102971.19;;;-7.78;82.60
17781;BME280;8498;52.516;13.790;2024-01-10T03:58:36;102973.34;;;-7.67;82.20
17781;BME280;8498;52.516;13.790;2024-01-10T04:03:59;102968.44;;;-7.82;81.24
17781;BME280;8498;52.516;13.790;2024-01-10T04:09:22;102952.41;;;-7.94;82.30
17781;BME280;8498;52.516;13.790;2024-01-10T04:14:44;102953.44;;;-7.91;81.91
17781;BME280;8498;52.516;13.790;2024-01-10T04:20:07;102957.72;;;-7.91;81.79
17781;BME280;8498;52.516;13.790;2024-01-10T04:25:29;102947.47;;;-8.09;82.57
17781;BME280;8498;52.516;13.790;2024-01-10T04:30:52;102947.41;;;-8.10;83.68
17781;BME280;8498;52.516;13.790;2024-01-10T04:36:15;102944.84;;;-8.10;84.80
17781;BME280;8498;52.516;13.790;2024-01-10T04:41:37;102959.44;;;-8.11;83.90
17781;BME280;8498;52.516;13.790;2024-01-10T04:46:59;102964.50;;;-8.12;84.10
17781;BME280;8498;52.516;13.790;2024-01-10T04:52:22;102955.97;;;-8.31;84.21
17781;BME280;8498;52.516;13.790;2024-01-10T04:57:44;102961.00;;;-8.34;84.26
17781;BME280;8498;52.516;13.790;2024-01-10T05:03:06;102953.72;;;-8.23;84.21
17781;BME280;8498;52.516;13.790;2024-01-10T05:08:29;102956.22;;;-8.05;83.47
17781;BME280;8498;52.516;13.790;2024-01-10T05:13:51;102951.88;;;-8.06;82.63
17781;BME280;8498;52.516;13.790;2024-01-10T05:19:14;102961.13;;;-8.11;82.61
17781;BME280;8498;52.516;13.790;2024-01-10T05:24:36;102965.06;;;-8.00;82.06
17781;BME280;8498;52.516;13.790;2024-01-10T05:29:59;102959.69;;;-8.05;81.92
17781;BME280;8498;52.516;13.790;2024-01-10T05:35:21;102960.31;;;-8.10;82.78
17781;BME280;8498;52.516;13.790;2024-01-10T05:40:44;102960.72;;;-8.01;81.73
17781;BME280;8498;52.516;13.790;2024-01-10T05:46:06;102954.72;;;-8.20;82.67
17781;BME280;8498;52.516;13.790;2024-01-10T05:51:29;102948.47;;;-8.05;82.65
17781;BME280;8498;52.516;13.790;2024-01-10T05:56:51;102936.41;;;-8.06;82.22
17781;BME280;8498;52.516;13.790;2024-01-10T06:02:13;102943.72;;;-7.96;81.34
17781;BME280;8498;52.516;13.790;2024-01-10T06:07:39;102939.09;;;-7.84;81.31
17781;BME280;8498;52.516;13.790;2024-01-10T06:13:04;102934.56;;;-7.90;81.15
17781;BME280;8498;52.516;13.790;2024-01-10T06:18:27;102936.06;;;-7.95;81.36
17781;BME280;8498;52.516;13.790;2024-01-10T06:23:49;102934.56;;;-7.90;81.43
17781;BME280;8498;52.516;13.790;2024-01-10T06:29:14;102923.09;;;-7.96;81.49
17781;BME280;8498;52.516;13.790;2024-01-10T06:34:36;102925.53;;;-8.19;81.82
17781;BME280;8498;52.516;13.790;2024-01-10T06:40:00;102939.94;;;-8.24;82.79
17781;BME280;8498;52.516;13.790;2024-01-10T06:45:23;102939.22;;;-8.21;83.28
17781;BME280;8498;52.516;13.790;2024-01-10T06:50:45;102944.28;;;-8.03;81.95
17781;BME280;8498;52.516;13.790;2024-01-10T06:56:09;102941.50;;;-8.08;81.77
17781;BME280;8498;52.516;13.790;2024-01-10T07:01:32;102938.78;;;-8.11;81.29
17781;BME280;8498;52.516;13.790;2024-01-10T07:06:54;102938.03;;;-8.08;80.82
17781;BME280;8498;52.516;13.790;2024-01-10T07:12:16;102937.78;;;-8.15;82.26
17781;BME280;8498;52.516;13.790;2024-01-10T07:17:39;102939.06;;;-8.05;80.90
17781;BME280;8498;52.516;13.790;2024-01-10T07:23:02;102940.81;;;-8.23;81.64
17781;BME280;8498;52.516;13.790;2024-01-10T07:28:25;102922.03;;;-8.21;81.51
17781;BME280;8498;52.516;13.790;2024-01-10T07:33:47;102932.47;;;-8.18;83.33
17781;BME280;8498;52.516;13.790;2024-01-10T07:39:10;102949.44;;;-8.23;84.10
17781;BME280;8498;52.516;13.790;2024-01-10T07:44:32;102953.25;;;-8.15;84.70
17781;BME280;8498;52.516;13.790;2024-01-10T07:49:55;102947.13;;;-8.17;84.93
17781;BME280;8498;52.516;13.790;2024-01-10T07:55:17;102949.03;;;-7.93;84.99
17781;BME280;8498;52.516;13.790;2024-01-10T08:00:40;102948.97;;;-7.95;85.37
17781;BME280;8498;52.516;13.790;2024-01-10T08:06:03;102945.34;;;-7.79;84.94
17781;BME280;8498;52.516;13.790;2024-01-10T08:11:25;102946.19;;;-7.59;84.27
17781;BME280;8498;52.516;13.790;2024-01-10T08:16:48;102942.09;;;-7.54;83.61
17781;BME280;8498;52.516;13.790;2024-01-10T08:22:10;102943.56;;;-7.40;84.35
17781;BME280;8498;52.516;13.790;2024-01-10T08:27:34;102947.56;;;-7.26;84.87
17781;BME280;8498;52.516;13.790;2024-01-10T08:32:57;102944.53;;;-7.16;84.39
17781;BME280;8498;52.516;13.790;2024-01-10T08:38:19;102952.84;;;-7.02;83.47
17781;BME280;8498;52.516;13.790;2024-01-10T08:43:42;102958.63;;;-6.87;83.31
17781;BME280;8498;52.516;13.790;2024-01-10T08:49:05;102957.34;;;-6.76;82.83
17781;BME280;8498;52.516;13.790;2024-01-10T08:54:27;102945.25;;;-6.54;83.01
17781;BME280;8498;52.516;13.790;2024-01-10T08:59:50;102945.19;;;-6.32;82.58
17781;BME280;8498;52.516;13.790;2024-01-10T09:05:13;102941.63;;;-6.13;82.30
17781;BME280;8498;52.516;13.790;2024-01-10T09:10:35;102947.44;;;-5.95;81.65
17781;BME280;8498;52.516;13.790;2024-01-10T09:15:57;102931.50;;;-5.80;82.01
17781;BME280;8498;52.516;13.790;2024-01-10T09:21:19;102939.06;;;-5.63;81.81
17781;BME280;8498;52.516;13.790;2024-01-10T09:26:43;102937.91;;;-5.45;81.88
17781;BME280;8498;52.516;13.790;2024-01-10T09:32:06;102941.97;;;-5.27;81.43
17781;BME280;8498;52.516;13.790;2024-01-10T09:37:29;102939.06;;;-5.10;81.84
17781;BME280;8498;52.516;13.790;2024-01-10T09:42:52;102944.94;;;-4.89;80.84
17781;BME280;8498;52.516;13.790;2024-01-10T09:48:16;102946.31;;;-4.72;80.57
17781;BME280;8498;52.516;13.790;2024-01-10T09:53:44;102938.25;;;-4.53;80.66
17781;BME280;8498;52.516;13.790;2024-01-10T09:59:10;102944.75;;;-4.38;80.17
17781;BME280;8498;52.516;13.790;2024-01-10T10:04:36;102923.56;;;-4.22;80.40
17781;BME280;8498;52.516;13.790;2024-01-10T10:10:02;102921.41;;;-4.07;79.59
17781;BME280;8498;52.516;13.790;2024-01-10T10:15:25;102915.69;;;-3.94;78.94
17781;BME280;8498;52.516;13.790;2024-01-10T10:21:06;102918.88;;;-3.73;77.95
17781;BME280;8498;52.516;13.790;2024-01-10T10:26:32;102901.78;;;-3.64;77.55
17781;BME280;8498;52.516;13.790;2024-01-10T10:31:55;102898.63;;;-3.51;76.70
17781;BME280;8498;52.516;13.790;2024-01-10T10:37:17;102895.63;;;-3.32;75.41
17781;BME280;8498;52.516;13.790;2024-01-10T10:42:44;102892.59;;;-3.16;74.48
17781;BME280;8498;52.516;13.790;2024-01-10T10:48:08;102888.84;;;-2.91;73.61
17781;BME280;8498;52.516;13.790;2024-01-10T10:53:36;102892.75;;;-2.69;71.94
17781;BME280;8498;52.516;13.790;2024-01-10T10:59:00;102897.72;;;-2.41;70.11
17781;BME280;8498;52.516;13.790;2024-01-10T11:04:24;102901.00;;;-2.06;67.79
17781;BME280;8498;52.516;13.790;2024-01-10T11:09:48;102895.38;;;-1.32;64.62
17781;BME280;8498;52.516;13.790;2024-01-10T11:21:21;102879.97;;;0.20;57.93
17781;BME280;8498;52.516;13.790;2024-01-10T11:26:45;102876.47;;;0.21;56.07
17781;BME280;8498;52.516;13.790;2024-01-10T11:32:12;102873.38;;;0.62;55.18
17781;BME280;8498;52.516;13.790;2024-01-10T11:37:42;102865.81;;;1.03;55.16
17781;BME280;8498;52.516;13.790;2024-01-10T11:43:12;102864.16;;;1.23;53.60
17781;BME280;8498;52.516;13.790;2024-01-10T11:48:36;102858.19;;;1.58;53.90
17781;BME280;8498;52.516;13.790;2024-01-10T11:54:00;102856.44;;;1.57;52.31
17781;BME280;8498;52.516;13.790;2024-01-10T11:59:24;102850.19;;;1.21;53.36
17781;BME280;8498;52.516;13.790;2024-01-10T12:04:46;102842.34;;;1.21;52.63
17781;BME280;8498;52.516;13.790;2024-01-10T12:10:10;102841.50;;;1.30;53.23
17781;BME280;8498;52.516;13.790;2024-01-10T12:15:33;102835.53;;;1.64;52.44
17781;BME280;8498;52.516;13.790;2024-01-10T12:20:56;102825.06;;;1.69;52.93
17781;BME280;8498;52.516;13.790;2024-01-10T12:26:19;102820.69;;;1.71;51.74
17781;BME280;8498;52.516;13.790;2024-01-10T12:31:41;102807.56;;;1.53;50.40
17781;BME280;8498;52.516;13.790;2024-01-10T12:37:06;102804.06;;;1.52;51.42
17781;BME280;8498;52.516;13.790;2024-01-10T12:42:28;102811.94;;;1.60;49.85
17781;BME280;8498;52.516;13.790;2024-01-10T12:47:53;102805.75;;;1.45;49.38
17781;BME280;8498;52.516;13.790;2024-01-10T12:53:16;102799.66;;;1.40;48.63
17781;BME280;8498;52.516;13.790;2024-01-10T12:58:41;102791.81;;;1.50;49.13
17781;BME280;8498;52.516;13.790;2024-01-10T13:04:04;102793.56;;;1.44;49.48
17781;BME280;8498;52.516;13.790;2024-01-10T13:09:30;102796.19;;;1.44;49.86
17781;BME280;8498;52.516;13.790;2024-01-10T13:14:53;102795.28;;;1.45;50.03
17781;BME280;8498;52.516;13.790;2024-01-10T13:20:18;102787.44;;;1.48;49.46
17781;BME280;8498;52.516;13.790;2024-01-10T13:25:40;102791.78;;;1.39;49.93
17781;BME280;8498;52.516;13.790;2024-01-10T13:31:03;102788.31;;;1.43;50.03
17781;BME280;8498;52.516;13.790;2024-01-10T13:36:27;102780.41;;;1.32;49.68
17781;BME280;8498;52.516;13.790;2024-01-10T13:41:50;102790.78;;;1.09;49.71
17781;BME280;8498;52.516;13.790;2024-01-10T13:47:13;102778.38;;;0.73;50.21
17781;BME280;8498;52.516;13.790;2024-01-10T13:52:38;102781.59;;;0.30;51.19
17781;BME280;8498;52.516;13.790;2024-01-10T13:58:00;102774.53;;;0.23;52.78
17781;BME280;8498;52.516;13.790;2024-01-10T14:03:22;102773.59;;;0.10;53.43
17781;BME280;8498;52.516;13.790;2024-01-10T14:08:45;102777.00;;;0.05;53.54
17781;BME280;8498;52.516;13.790;2024-01-10T14:14:10;102779.50;;;-0.08;54.29
17781;BME280;8498;52.516;13.790;2024-01-10T14:19:33;102777.66;;;-0.19;55.67
17781;BME280;8498;52.516;13.790;2024-01-10T14:24:55;102771.41;;;-0.35;56.65
17781;BME280;8498;52.516;13.790;2024-01-10T14:30:19;102757.38;;;-0.46;57.34
17781;BME280;8498;52.516;13.790;2024-01-10T14:35:42;102752.88;;;-0.59;58.50
17781;BME280;8498;52.516;13.790;2024-01-10T14:41:06;102765.78;;;-0.70;58.90
17781;BME280;8498;52.516;13.790;2024-01-10T14:46:29;102760.41;;;-0.85;60.61
17781;BME280;8498;52.516;13.790;2024-01-10T14:51:52;102764.59;;;-0.98;61.37
17781;BME280;8498;52.516;13.790;2024-01-10T14:57:14;102768.72;;;-1.14;61.75
17781;BME280;8498;52.516;13.790;2024-01-10T15:02:38;102773.06;;;-1.16;63.04
17781;BME280;8498;52.516;13.790;2024-01-10T15:08:01;102769.31;;;-1.34;64.65
17781;BME280;8498;52.516;13.790;2024-01-10T15:13:23;102782.97;;;-1.51;65.89
17781;BME280;8498;52.516;13.790;2024-01-10T15:18:46;102777.56;;;-1.63;66.00
17781;BME280;8498;52.516;13.790;2024-01-10T15:24:08;102784.50;;;-1.65;65.94
17781;BME280;8498;52.516;13.790;2024-01-10T15:29:45;102782.38;;;-1.89;66.56
17781;BME280;8498;52.516;13.790;2024-01-10T15:35:17;102781.50;;;-1.89;65.23
17781;BME280;8498;52.516;13.790;2024-01-10T15:40:39;102785.88;;;-1.87;65.59
17781;BME280;8498;52.516;13.790;2024-01-10T15:46:02;102794.19;;;-2.07;66.74
17781;BME280;8498;52.516;13.790;2024-01-10T15:51:25;102797.41;;;-2.22;67.58
17781;BME280;8498;52.516;13.790;2024-01-10T15:56:48;102797.25;;;-2.31;66.70
17781;BME280;8498;52.516;13.790;2024-01-10T16:02:11;102797.13;;;-2.37;67.89
17781;BME280;8498;52.516;13.790;2024-01-10T16:07:33;102791.59;;;-2.54;67.99
17781;BME280;8498;52.516;13.790;2024-01-10T16:12:56;102799.03;;;-2.74;68.94
17781;BME280;8498;52.516;13.790;2024-01-10T16:18:19;102793.59;;;-2.84;70.13
17781;BME280;8498;52.516;13.790;2024-01-10T16:23:41;102785.53;;;-2.97;69.56
17781;BME280;8498;52.516;13.790;2024-01-10T16:29:03;102779.94;;;-3.15;70.48
17781;BME280;8498;52.516;13.790;2024-01-10T16:34:26;102789.97;;;-3.33;70.17
17781;BME280;8498;52.516;13.790;2024-01-10T16:39:50;102776.84;;;-3.38;69.89
17781;BME280;8498;52.516;13.790;2024-01-10T16:45:15;102781.78;;;-3.48;70.65
17781;BME280;8498;52.516;13.790;2024-01-10T16:50:38;102777.16;;;-3.61;71.90
17781;BME280;8498;52.516;13.790;2024-01-10T16:56:00;102783.88;;;-3.70;72.80
17781;BME280;8498;52.516;13.790;2024-01-10T17:01:23;102771.44;;;-3.84;72.87
17781;BME280;8498;52.516;13.790;2024-01-10T17:06:46;102784.16;;;-3.95;73.22
17781;BME280;8498;52.516;13.790;2024-01-10T17:12:09;102760.22;;;-3.82;74.03
17781;BME280;8498;52.516;13.790;2024-01-10T17:17:31;102751.91;;;-4.03;73.48
17781;BME280;8498;52.516;13.790;2024-01-10T17:22:54;102761.03;;;-4.19;74.54
17781;BME280;8498;52.516;13.790;2024-01-10T17:28:17;102755.66;;;-4.26;75.44
17781;BME280;8498;52.516;13.790;2024-01-10T17:33:39;102754.50;;;-4.37;75.61
17781;BME280;8498;52.516;13.790;2024-01-10T17:39:02;102745.22;;;-4.61;76.93
17781;BME280;8498;52.516;13.790;2024-01-10T17:44:25;102739.94;;;-4.64;76.82
17781;BME280;8498;52.516;13.790;2024-01-10T17:49:47;102739.78;;;-4.70;76.84
17781;BME280;8498;52.516;13.790;2024-01-10T17:55:09;102729.78;;;-4.88;77.70
17781;BME280;8498;52.516;13.790;2024-01-10T18:00:32;102734.91;;;-4.91;79.36
17781;BME280;8498;52.516;13.790;2024-01-10T18:05:54;102740.72;;;-4.99;78.91
17781;BME280;8498;52.516;13.790;2024-01-10T18:11:16;102740.47;;;-5.07;78.66
17781;BME280;8498;52.516;13.790;2024-01-10T18:16:39;102743.56;;;-5.19;79.20
17781;BME280;8498;52.516;13.790;2024-01-10T18:22:02;102739.22;;;-5.21;79.45
17781;BME280;8498;52.516;13.790;2024-01-10T18:27:25;102732.16;;;-5.25;79.59
17781;BME280;8498;52.516;13.790;2024-01-10T18:32:47;102737.88;;;-5.37;79.51
17781;BME280;8498;52.516;13.790;2024-01-10T18:38:10;102728.28;;;-5.39;79.84
17781;BME280;8498;52.516;13.790;2024-01-10T18:43:33;102730.38;;;-5.56;80.34
17781;BME280;8498;52.516;13.790;2024-01-10T18:48:55;102727.06;;;-5.52;80.60
17781;BME280;8498;52.516;13.790;2024-01-10T18:54:17;102728.72;;;-5.54;80.65
17781;BME280;8498;52.516;13.790;2024-01-10T18:59:40;102727.22;;;-5.74;81.34
17781;BME280;8498;52.516;13.790;2024-01-10T19:05:03;102731.03;;;-5.63;81.78
17781;BME280;8498;52.516;13.790;2024-01-10T19:10:26;102728.16;;;-5.72;80.78
17781;BME280;8498;52.516;13.790;2024-01-10T19:15:49;102728.78;;;-5.79;80.98
17781;BME280;8498;52.516;13.790;2024-01-10T19:21:11;102722.97;;;-5.72;81.34
17781;BME280;8498;52.516;13.790;2024-01-10T19:26:33;102728.78;;;-5.79;80.79
17781;BME280;8498;52.516;13.790;2024-01-10T19:31:56;102733.34;;;-5.99;81.87
17781;BME280;8498;52.516;13.790;2024-01-10T19:37:18;102742.66;;;-6.06;81.67
17781;BME280;8498;52.516;13.790;2024-01-10T19:42:42;102747.00;;;-6.05;82.70
17781;BME280;8498;52.516;13.790;2024-01-10T19:48:05;102741.06;;;-6.01;82.61
17781;BME280;8498;52.516;13.790;2024-01-10T19:53:27;102760.00;;;-6.02;82.48
17781;BME280;8498;52.516;13.790;2024-01-10T19:58:50;102759.63;;;-6.14;82.89
17781;BME280;8498;52.516;13.790;2024-01-10T20:04:12;102759.81;;;-6.08;82.75
17781;BME280;8498;52.516;13.790;2024-01-10T20:09:35;102752.69;;;-6.15;83.16
17781;BME280;8498;52.516;13.790;2024-01-10T20:14:57;102756.09;;;-6.16;82.61
17781;BME280;8498;52.516;13.790;2024-01-10T20:20:19;102748.13;;;-6.22;82.88
17781;BME280;8498;52.516;13.790;2024-01-10T20:25:43;102739.84;;;-6.12;83.37
17781;BME280;8498;52.516;13.790;2024-01-10T20:31:05;102755.50;;;-6.34;83.32
17781;BME280;8498;52.516;13.790;2024-01-10T20:36:29;102761.88;;;-6.48;84.27
17781;BME280;8498;52.516;13.790;2024-01-10T20:41:51;102765.50;;;-6.43;84.14
17781;BME280;8498;52.516;13.790;2024-01-10T20:47:16;102761.50;;;-6.35;83.62
17781;BME280;8498;52.516;13.790;2024-01-10T20:52:40;102765.72;;;-6.37;84.43
17781;BME280;8498;52.516;13.790;2024-01-10T20:58:02;102768.00;;;-6.21;84.35
17781;BME280;8498;52.516;13.790;2024-01-10T21:03:25;102787.88;;;-6.45;83.46
17781;BME280;8498;52.516;13.790;2024-01-10T21:08:51;102798.72;;;-6.54;84.41
17781;BME280;8498;52.516;13.790;2024-01-10T21:14:14;102784.34;;;-6.47;84.25
17781;BME280;8498;52.516;13.790;2024-01-10T21:19:37;102789.56;;;-6.46;84.30
17781;BME280;8498;52.516;13.790;2024-01-10T21:24:59;102772.34;;;-6.45;84.94
17781;BME280;8498;52.516;13.790;2024-01-10T21:30:21;102765.56;;;-6.16;83.78
17781;BME280;8498;52.516;13.790;2024-01-10T21:35:44;102769.31;;;-6.34;82.91
17781;BME280;8498;52.516;13.790;2024-01-10T21:41:09;102764.28;;;-6.54;83.68
17781;BME280;8498;52.516;13.790;2024-01-10T21:46:31;102766.84;;;-6.54;83.37
17781;BME280;8498;52.516;13.790;2024-01-10T21:51:53;102764.88;;;-6.61;83.70
17781;BME280;8498;52.516;13.790;2024-01-10T21:57:16;102764.53;;;-6.71;84.33
17781;BME280;8498;52.516;13.790;2024-01-10T22:02:42;102774.38;;;-6.84;85.11
17781;BME280;8498;52.516;13.790;2024-01-10T22:08:18;102772.47;;;-6.66;85.33
17781;BME280;8498;52.516;13.790;2024-01-10T22:13:40;102764.44;;;-6.74;84.47
17781;BME280;8498;52.516;13.790;2024-01-10T22:19:03;102755.22;;;-6.67;83.91
17781;BME280;8498;52.516;13.790;2024-01-10T22:24:25;102753.56;;;-6.65;84.24
17781;BME280;8498;52.516;13.790;2024-01-10T22:29:48;102762.25;;;-6.87;83.97
17781;BME280;8498;52.516;13.790;2024-01-10T22:35:11;102762.75;;;-6.97;83.72
17781;BME280;8498;52.516;13.790;2024-01-10T22:40:33;102752.09;;;-7.05;85.40
17781;BME280;8498;52.516;13.790;2024-01-10T22:45:55;102756.75;;;-6.96;84.56
17781;BME280;8498;52.516;13.790;2024-01-10T22:51:19;102738.03;;;-7.13;85.13
17781;BME280;8498;52.516;13.790;2024-01-10T22:56:41;102723.16;;;-6.96;84.85
17781;BME280;8498;52.516;13.790;2024-01-10T23:02:05;102716.94;;;-7.01;83.61
17781;BME280;8498;52.516;13.790;2024-01-10T23:07:27;102742.75;;;-7.25;84.56
17781;BME280;8498;52.516;13.790;2024-01-10T23:12:50;102745.72;;;-7.14;85.66
17781;BME280;8498;52.516;13.790;2024-01-10T23:18:12;102729.03;;;-7.00;84.96
17781;BME280;8498;52.516;13.790;2024-01-10T23:23:34;102733.13;;;-7.05;84.16
17781;BME280;8498;52.516;13.790;2024-01-10T23:28:56;102728.25;;;-7.21;84.79
17781;BME280;8498;52.516;13.790;2024-01-10T23:34:19;102735.06;;;-7.23;84.84
17781;BME280;8498;52.516;13.790;2024-01-10T23:39:41;102724.25;;;-7.13;84.83
17781;BME280;8498;52.516;13.790;2024-01-10T23:45:04;102705.66;;;-7.03;84.32
17781;BME280;8498;52.516;13.790;2024-01-10T23:50:26;102696.88;;;-7.08;84.77
17781;BME280;8498;52.516;13.790;2024-01-10T23:55:49;102684.25;;;-7.00;84.77
